sensor_id;sensor_type;location;lat;lon;timestamp;pressure;altitude;pressure_sealevel;temperature;humidity
52653;BME280;39353;42.864;12.014;2022-07-10T00:06:35;97740.30;;;26.24;33.33
52653;BME280;39353;42.864;12.014;2022-07-10T00:09:39;97738.41;;;26.21;33.22
52653;BME280;39353;42.864;12.014;2022-07-10T00:13:21;97737.98;;;26.18;33.23
52653;BME280;39353;42.864;12.014;2022-07-10T00:16:08;97733.62;;;26.17;33.22
52653;BME280;39353;42.864;12.014;2022-07-10T00:18:35;97731.56;;;26.15;33.34
52653;BME280;39353;42.864;12.014;2022-07-10T00:21:40;97726.98;;;26.13;33.34
52653;BME280;39353;42.864;12.014;2022-07-10T00:24:26;97722.65;;;26.12;33.46
52653;BME280;39353;42.864;12.014;2022-07-10T00:27:11;97723.54;;;26.10;33.39
52653;BME280;39353;42.864;12.014;2022-07-10T00:29:57;97723.96;;;26.07;33.47
52653;BME280;39353;42.864;12.014;2022-07-10T00:32:43;97718.92;;;26.04;33.53
52653;BME280;39353;42.864;12.014;2022-07-10T00:35:30;97720.78;;;26.03;33.53
52653;BME280;39353;42.864;12.014;2022-07-10T00:38:15;97721.20;;;26.02;33.80
52653;BME280;39353;42.864;12.014;2022-07-10T00:41:19;97723.90;;;26.02;33.74
52653;BME280;39353;42.864;12.014;2022-07-10T00:43:59;97717.28;;;26.01;33.86
52653;BME280;39353;42.864;12.014;2022-07-10T00:46:47;97716.78;;;26.00;33.96
52653;BME280;39353;42.864;12.014;2022-07-10T00:49:33;97719.91;;;26.00;33.97
52653;BME280;39353;42.864;12.014;2022-07-10T00:52:04;97721.64;;;25.99;34.01
52653;BME280;39353;42.864;12.014;2022-07-10T00:54:34;97719.22;;;25.98;33.94
52653;BME280;39353;42.864;12.014;2022-07-10T00:57:40;97716.88;;;25.97;33.98
52653;BME280;39353;42.864;12.014;2022-07-10T01:00:08;97716.27;;;25.96;33.94
52653;BME280;39353;42.864;12.014;2022-07-10T01:02:42;97716.00;;;25.95;34.13
52653;BME280;39353;42.864;12.014;2022-07-10T01:05:11;97711.64;;;25.94;34.13
52653;BME280;39353;42.864;12.014;2022-07-10T01:07:39;97711.95;;;25.93;34.31
52653;BME280;39353;42.864;12.014;2022-07-10T01:10:26;97713.44;;;25.93;34.33
52653;BME280;39353;42.864;12.014;2022-07-10T01:13:11;97708.91;;;25.92;34.35
52653;BME280;39353;42.864;12.014;2022-07-10T01:16:17;97711.50;;;25.92;34.43
52653;BME280;39353;42.864;12.014;2022-07-10T01:18:44;97704.73;;;25.89;34.50
52653;BME280;39353;42.864;12.014;2022-07-10T01:21:48;97703.80;;;25.88;34.51
52653;BME280;39353;42.864;12.014;2022-07-10T01:24:16;97699.66;;;25.88;34.52
52653;BME280;39353;42.864;12.014;2022-07-10T01:27:21;97700.55;;;25.88;34.46
52653;BME280;39353;42.864;12.014;2022-07-10T01:30:07;97699.05;;;25.87;34.72
52653;BME280;39353;42.864;12.014;2022-07-10T01:32:39;97696.95;;;25.86;34.65
52653;BME280;39353;42.864;12.014;2022-07-10T01:35:07;97694.92;;;25.87;34.61
52653;BME280;39353;42.864;12.014;2022-07-10T01:40:40;97688.13;;;25.84;34.67
52653;BME280;39353;42.864;12.014;2022-07-10T01:43:45;97688.83;;;25.83;34.72
52653;BME280;39353;42.864;12.014;2022-07-10T01:46:50;97693.05;;;25.81;34.61
52653;BME280;39353;42.864;12.014;2022-07-10T01:49:55;97689.17;;;25.79;34.68
52653;BME280;39353;42.864;12.014;2022-07-10T01:53:00;97687.39;;;25.78;34.76
52653;BME280;39353;42.864;12.014;2022-07-10T01:56:09;97688.76;;;25.77;34.77
52653;BME280;39353;42.864;12.014;2022-07-10T01:59:15;97683.23;;;25.75;34.72
52653;BME280;39353;42.864;12.014;2022-07-10T02:02:38;97685.86;;;25.74;34.59
52653;BME280;39353;42.864;12.014;2022-07-10T02:06:02;97685.48;;;25.71;34.59
52653;BME280;39353;42.864;12.014;2022-07-10T02:11:34;97683.54;;;25.69;34.52
52653;BME280;39353;42.864;12.014;2022-07-10T02:14:20;97681.83;;;25.68;34.53
52653;BME280;39353;42.864;12.014;2022-07-10T02:24:11;97682.39;;;25.66;34.48
52653;BME280;39353;42.864;12.014;2022-07-10T02:26:38;97676.98;;;25.65;34.43
52653;BME280;39353;42.864;12.014;2022-07-10T02:30:02;97678.46;;;25.64;34.40
52653;BME280;39353;42.864;12.014;2022-07-10T02:38:39;97678.17;;;25.63;34.37
52653;BME280;39353;42.864;12.014;2022-07-10T02:41:05;97673.01;;;25.63;34.15
52653;BME280;39353;42.864;12.014;2022-07-10T02:43:51;97666.80;;;25.59;34.31
52653;BME280;39353;42.864;12.014;2022-07-10T02:46:37;97674.01;;;25.60;34.37
52653;BME280;39353;42.864;12.014;2022-07-10T02:49:41;97672.58;;;25.59;34.25
52653;BME280;39353;42.864;12.014;2022-07-10T02:52:27;97668.91;;;25.57;34.29
52653;BME280;39353;42.864;12.014;2022-07-10T02:54:58;97665.71;;;25.57;34.34
52653;BME280;39353;42.864;12.014;2022-07-10T02:57:44;97666.27;;;25.57;34.42
52653;BME280;39353;42.864;12.014;2022-07-10T03:00:29;97660.00;;;25.56;34.38
52653;BME280;39353;42.864;12.014;2022-07-10T03:06:00;97659.83;;;25.55;34.29
52653;BME280;39353;42.864;12.014;2022-07-10T03:08:27;97663.77;;;25.54;34.31
52653;BME280;39353;42.864;12.014;2022-07-10T03:11:13;97659.50;;;25.55;34.41
52653;BME280;39353;42.864;12.014;2022-07-10T03:13:40;97660.94;;;25.55;34.33
52653;BME280;39353;42.864;12.014;2022-07-10T03:16:07;97660.42;;;25.54;34.36
52653;BME280;39353;42.864;12.014;2022-07-10T03:18:54;97662.90;;;25.54;34.46
52653;BME280;39353;42.864;12.014;2022-07-10T03:24:45;97658.98;;;25.53;34.40
52653;BME280;39353;42.864;12.014;2022-07-10T03:33:59;97649.08;;;25.49;34.30
52653;BME280;39353;42.864;12.014;2022-07-10T03:37:22;97653.59;;;25.49;34.32
52653;BME280;39353;42.864;12.014;2022-07-10T03:39:49;97653.95;;;25.48;34.37
52653;BME280;39353;42.864;12.014;2022-07-10T03:42:17;97655.41;;;25.46;34.23
52653;BME280;39353;42.864;12.014;2022-07-10T03:45:59;97652.65;;;25.42;34.18
52653;BME280;39353;42.864;12.014;2022-07-10T03:51:30;97646.32;;;25.38;34.31
52653;BME280;39353;42.864;12.014;2022-07-10T04:06:15;97656.58;;;25.30;34.57
52653;BME280;39353;42.864;12.014;2022-07-10T04:09:01;97659.27;;;25.30;34.64
52653;BME280;39353;42.864;12.014;2022-07-10T04:14:33;97661.94;;;25.28;34.72
52653;BME280;39353;42.864;12.014;2022-07-10T04:17:01;97659.09;;;25.25;34.61
52653;BME280;39353;42.864;12.014;2022-07-10T04:19:48;97661.49;;;25.24;34.68
52653;BME280;39353;42.864;12.014;2022-07-10T04:22:34;97661.16;;;25.25;34.85
52653;BME280;39353;42.864;12.014;2022-07-10T04:25:03;97655.80;;;25.25;34.69
52653;BME280;39353;42.864;12.014;2022-07-10T04:30:36;97659.73;;;25.27;34.89
52653;BME280;39353;42.864;12.014;2022-07-10T04:33:23;97657.21;;;25.28;34.91
52653;BME280;39353;42.864;12.014;2022-07-10T04:35:50;97658.52;;;25.27;35.04
52653;BME280;39353;42.864;12.014;2022-07-10T04:38:35;97658.79;;;25.27;35.11
52653;BME280;39353;42.864;12.014;2022-07-10T04:41:02;97655.73;;;25.28;35.08
52653;BME280;39353;42.864;12.014;2022-07-10T04:43:30;97657.12;;;25.29;35.16
52653;BME280;39353;42.864;12.014;2022-07-10T04:46:34;97656.05;;;25.32;35.06
52653;BME280;39353;42.864;12.014;2022-07-10T04:52:44;97646.17;;;25.36;34.91
52653;BME280;39353;42.864;12.014;2022-07-10T04:55:30;97643.57;;;25.35;34.80
52653;BME280;39353;42.864;12.014;2022-07-10T04:58:14;97639.18;;;25.35;34.95
52653;BME280;39353;42.864;12.014;2022-07-10T05:01:19;97636.77;;;25.35;34.96
52653;BME280;39353;42.864;12.014;2022-07-10T05:03:47;97634.36;;;25.36;34.91
52653;BME280;39353;42.864;12.014;2022-07-10T05:06:32;97639.19;;;25.38;35.00
52653;BME280;39353;42.864;12.014;2022-07-10T05:09:17;97636.72;;;25.39;34.87
52653;BME280;39353;42.864;12.014;2022-07-10T05:12:23;97641.30;;;25.41;34.84
52653;BME280;39353;42.864;12.014;2022-07-10T05:14:50;97638.77;;;25.43;35.11
52653;BME280;39353;42.864;12.014;2022-07-10T05:17:36;97641.26;;;25.44;35.20
52653;BME280;39353;42.864;12.014;2022-07-10T05:20:22;97642.92;;;25.45;35.29
52653;BME280;39353;42.864;12.014;2022-07-10T05:23:10;97642.79;;;25.47;35.45
52653;BME280;39353;42.864;12.014;2022-07-10T05:26:15;97641.30;;;25.50;35.67
52653;BME280;39353;42.864;12.014;2022-07-10T05:29:22;97637.20;;;25.52;35.71
52653;BME280;39353;42.864;12.014;2022-07-10T05:34:37;97633.73;;;25.56;36.00
52653;BME280;39353;42.864;12.014;2022-07-10T05:43:51;97634.69;;;25.66;36.31
52653;BME280;39353;42.864;12.014;2022-07-10T05:46:36;97632.09;;;25.69;36.32
52653;BME280;39353;42.864;12.014;2022-07-10T05:49:22;97634.04;;;25.71;36.29
52653;BME280;39353;42.864;12.014;2022-07-10T05:51:50;97640.73;;;25.74;36.18
52653;BME280;39353;42.864;12.014;2022-07-10T05:57:22;97636.66;;;25.78;36.42
52653;BME280;39353;42.864;12.014;2022-07-10T06:00:09;97639.39;;;25.80;36.42
52653;BME280;39353;42.864;12.014;2022-07-10T06:02:56;97645.30;;;25.83;36.48
52653;BME280;39353;42.864;12.014;2022-07-10T06:06:20;97648.89;;;25.84;36.20
52653;BME280;39353;42.864;12.014;2022-07-10T06:08:47;97645.02;;;25.87;36.55
52653;BME280;39353;42.864;12.014;2022-07-10T06:11:33;97648.30;;;25.90;36.64
52653;BME280;39353;42.864;12.014;2022-07-10T06:14:00;97649.98;;;25.93;36.87
52653;BME280;39353;42.864;12.014;2022-07-10T06:20:08;97649.24;;;26.00;37.04
52653;BME280;39353;42.864;12.014;2022-07-10T06:23:13;97648.30;;;26.03;37.08
52653;BME280;39353;42.864;12.014;2022-07-10T06:29:21;97647.73;;;26.12;37.28
52653;BME280;39353;42.864;12.014;2022-07-10T06:31:48;97645.13;;;26.13;36.95
52653;BME280;39353;42.864;12.014;2022-07-10T06:34:15;97641.02;;;26.07;36.97
52653;BME280;39353;42.864;12.014;2022-07-10T06:36:42;97645.63;;;25.96;37.19
52653;BME280;39353;42.864;12.014;2022-07-10T06:42:32;97642.71;;;25.78;37.76
52653;BME280;39353;42.864;12.014;2022-07-10T06:45:18;97642.65;;;25.73;37.80
52653;BME280;39353;42.864;12.014;2022-07-10T06:51:27;97637.33;;;25.70;38.08
52653;BME280;39353;42.864;12.014;2022-07-10T06:54:13;97640.34;;;25.69;38.36
52653;BME280;39353;42.864;12.014;2022-07-10T06:57:20;97638.64;;;25.70;38.32
52653;BME280;39353;42.864;12.014;2022-07-10T07:00:25;97640.23;;;25.69;38.49
52653;BME280;39353;42.864;12.014;2022-07-10T07:09:20;97638.34;;;25.76;38.59
52653;BME280;39353;42.864;12.014;2022-07-10T07:12:06;97641.60;;;25.82;38.55
52653;BME280;39353;42.864;12.014;2022-07-10T07:15:28;97638.96;;;25.87;38.42
52653;BME280;39353;42.864;12.014;2022-07-10T07:21:37;97634.35;;;25.90;38.33
52653;BME280;39353;42.864;12.014;2022-07-10T07:24:42;97632.48;;;25.92;38.28
52653;BME280;39353;42.864;12.014;2022-07-10T07:27:47;97634.13;;;25.95;38.13
52653;BME280;39353;42.864;12.014;2022-07-10T07:30:51;97635.36;;;25.99;38.17
52653;BME280;39353;42.864;12.014;2022-07-10T07:33:18;97631.59;;;26.00;38.04
52653;BME280;39353;42.864;12.014;2022-07-10T07:36:05;97631.14;;;26.03;37.94
52653;BME280;39353;42.864;12.014;2022-07-10T07:48:23;97624.13;;;25.73;38.05
52653;BME280;39353;42.864;12.014;2022-07-10T07:50:50;97623.67;;;25.68;38.25
52653;BME280;39353;42.864;12.014;2022-07-10T07:53:55;97625.36;;;25.75;38.10
52653;BME280;39353;42.864;12.014;2022-07-10T07:56:58;97622.41;;;25.82;38.06
52653;BME280;39353;42.864;12.014;2022-07-10T07:59:45;97621.70;;;25.91;38.13
52653;BME280;39353;42.864;12.014;2022-07-10T08:02:12;97618.77;;;26.02;37.70
52653;BME280;39353;42.864;12.014;2022-07-10T08:13:53;97615.50;;;26.15;36.79
52653;BME280;39353;42.864;12.014;2022-07-10T08:16:20;97617.54;;;26.19;36.82
52653;BME280;39353;42.864;12.014;2022-07-10T08:19:25;97620.69;;;26.26;36.33
52653;BME280;39353;42.864;12.014;2022-07-10T08:25:51;97617.29;;;26.37;36.11
52653;BME280;39353;42.864;12.014;2022-07-10T08:28:54;97619.61;;;26.40;35.65
52653;BME280;39353;42.864;12.014;2022-07-10T08:31:30;97617.26;;;26.41;35.53
52653;BME280;39353;42.864;12.014;2022-07-10T08:33:57;97614.69;;;26.43;34.92
52653;BME280;39353;42.864;12.014;2022-07-10T08:36:44;97617.44;;;26.47;34.81
52653;BME280;39353;42.864;12.014;2022-07-10T08:39:29;97611.58;;;26.49;34.88
52653;BME280;39353;42.864;12.014;2022-07-10T08:41:57;97605.36;;;26.51;35.00
52653;BME280;39353;42.864;12.014;2022-07-10T08:44:43;97603.64;;;26.54;35.07
52653;BME280;39353;42.864;12.014;2022-07-10T08:47:10;97606.48;;;26.58;34.92
52653;BME280;39353;42.864;12.014;2022-07-10T08:50:37;97606.95;;;26.62;34.62
52653;BME280;39353;42.864;12.014;2022-07-10T08:53:42;97607.00;;;26.67;34.62
52653;BME280;39353;42.864;12.014;2022-07-10T08:56:29;97601.45;;;26.69;34.42
52653;BME280;39353;42.864;12.014;2022-07-10T08:59:15;97596.85;;;26.71;34.19
52653;BME280;39353;42.864;12.014;2022-07-10T09:01:43;97595.55;;;26.74;34.03
52653;BME280;39353;42.864;12.014;2022-07-10T09:04:29;97596.96;;;26.78;33.29
52653;BME280;39353;42.864;12.014;2022-07-10T09:10:38;97594.92;;;26.86;32.10
52653;BME280;39353;42.864;12.014;2022-07-10T09:17:19;97591.33;;;26.87;31.91
52653;BME280;39353;42.864;12.014;2022-07-10T09:19:46;97586.10;;;26.88;31.35
52653;BME280;39353;42.864;12.014;2022-07-10T09:25:55;97585.28;;;26.87;32.59
52653;BME280;39353;42.864;12.014;2022-07-10T09:28:23;97584.73;;;26.89;32.85
52653;BME280;39353;42.864;12.014;2022-07-10T09:31:11;97580.90;;;26.92;32.75
52653;BME280;39353;42.864;12.014;2022-07-10T09:33:39;97580.98;;;26.96;32.52
52653;BME280;39353;42.864;12.014;2022-07-10T09:36:25;97586.48;;;27.00;33.82
52653;BME280;39353;42.864;12.014;2022-07-10T09:45:40;97572.84;;;27.04;33.45
52653;BME280;39353;42.864;12.014;2022-07-10T09:48:07;97574.66;;;27.05;33.14
52653;BME280;39353;42.864;12.014;2022-07-10T09:54:53;97568.75;;;27.10;32.54
52653;BME280;39353;42.864;12.014;2022-07-10T09:58:17;97565.35;;;27.12;32.47
52653;BME280;39353;42.864;12.014;2022-07-10T10:01:04;97562.80;;;27.11;31.83
52653;BME280;39353;42.864;12.014;2022-07-10T10:03:50;97561.16;;;27.11;32.32
52653;BME280;39353;42.864;12.014;2022-07-10T10:06:18;97560.23;;;27.11;32.11
52653;BME280;39353;42.864;12.014;2022-07-10T10:09:12;97562.10;;;27.14;31.77
52653;BME280;39353;42.864;12.014;2022-07-10T10:12:48;97555.61;;;27.17;31.05
52653;BME280;39353;42.864;12.014;2022-07-10T10:15:37;97554.91;;;27.28;30.13
52653;BME280;39353;42.864;12.014;2022-07-10T10:21:15;97554.08;;;27.26;29.76
52653;BME280;39353;42.864;12.014;2022-07-10T10:24:01;97543.95;;;27.27;29.84
52653;BME280;39353;42.864;12.014;2022-07-10T10:27:06;97543.72;;;27.26;30.16
52653;BME280;39353;42.864;12.014;2022-07-10T10:29:54;97541.85;;;27.26;30.23
52653;BME280;39353;42.864;12.014;2022-07-10T10:35:45;97537.30;;;27.32;30.47
52653;BME280;39353;42.864;12.014;2022-07-10T10:41:26;97538.27;;;27.37;30.39
52653;BME280;39353;42.864;12.014;2022-07-10T10:53:00;97532.70;;;27.37;29.21
52653;BME280;39353;42.864;12.014;2022-07-10T10:58:42;97525.48;;;27.48;30.28
52653;BME280;39353;42.864;12.014;2022-07-10T11:01:29;97522.88;;;27.54;30.21
52653;BME280;39353;42.864;12.014;2022-07-10T11:09:39;97514.86;;;27.61;30.14
52653;BME280;39353;42.864;12.014;2022-07-10T11:15:43;97507.39;;;27.70;29.58
52653;BME280;39353;42.864;12.014;2022-07-10T11:18:51;97506.51;;;27.72;29.41
52653;BME280;39353;42.864;12.014;2022-07-10T11:21:23;97505.31;;;27.75;29.26
52653;BME280;39353;42.864;12.014;2022-07-10T11:24:49;97501.42;;;27.66;29.49
52653;BME280;39353;42.864;12.014;2022-07-10T11:30:01;97502.42;;;27.69;29.90
52653;BME280;39353;42.864;12.014;2022-07-10T11:32:48;97496.73;;;27.69;29.51
52653;BME280;39353;42.864;12.014;2022-07-10T11:35:35;97496.35;;;27.71;30.13
52653;BME280;39353;42.864;12.014;2022-07-10T11:41:15;97492.13;;;27.79;30.79
52653;BME280;39353;42.864;12.014;2022-07-10T11:44:03;97486.91;;;27.84;30.43
52653;BME280;39353;42.864;12.014;2022-07-10T11:47:07;97489.40;;;27.88;30.17
52653;BME280;39353;42.864;12.014;2022-07-10T11:52:35;97481.00;;;27.85;29.92
52653;BME280;39353;42.864;12.014;2022-07-10T11:55:23;97485.65;;;27.87;30.04
52653;BME280;39353;42.864;12.014;2022-07-10T11:58:16;97480.02;;;27.85;30.29
52653;BME280;39353;42.864;12.014;2022-07-10T12:04:25;97474.02;;;27.90;29.86
52653;BME280;39353;42.864;12.014;2022-07-10T12:07:15;97471.10;;;27.95;29.52
52653;BME280;39353;42.864;12.014;2022-07-10T12:09:59;97469.77;;;27.95;29.68
52653;BME280;39353;42.864;12.014;2022-07-10T12:12:27;97467.12;;;27.95;29.52
52653;BME280;39353;42.864;12.014;2022-07-10T12:15:33;97461.84;;;28.00;29.24
52653;BME280;39353;42.864;12.014;2022-07-10T12:18:01;97457.59;;;28.00;29.84
52653;BME280;39353;42.864;12.014;2022-07-10T12:23:37;97458.30;;;28.03;29.49
52653;BME280;39353;42.864;12.014;2022-07-10T12:26:10;97459.20;;;28.02;29.72
52653;BME280;39353;42.864;12.014;2022-07-10T12:28:55;97455.44;;;28.02;29.38
52653;BME280;39353;42.864;12.014;2022-07-10T12:35:04;97451.70;;;28.10;28.79
52653;BME280;39353;42.864;12.014;2022-07-10T12:46:32;97450.56;;;28.29;28.26
52653;BME280;39353;42.864;12.014;2022-07-10T12:49:10;97453.16;;;28.33;28.12
52653;BME280;39353;42.864;12.014;2022-07-10T12:52:20;97452.73;;;28.33;28.34
52653;BME280;39353;42.864;12.014;2022-07-10T12:58:10;97451.01;;;28.36;28.18
52653;BME280;39353;42.864;12.014;2022-07-10T13:01:19;97454.42;;;28.38;28.11
52653;BME280;39353;42.864;12.014;2022-07-10T13:03:46;97451.39;;;28.37;28.28
52653;BME280;39353;42.864;12.014;2022-07-10T13:06:33;97444.11;;;28.38;28.40
52653;BME280;39353;42.864;12.014;2022-07-10T13:09:58;97436.60;;;28.38;29.02
52653;BME280;39353;42.864;12.014;2022-07-10T13:15:30;97436.15;;;28.48;29.59
52653;BME280;39353;42.864;12.014;2022-07-10T13:21:03;97430.23;;;28.54;30.22
52653;BME280;39353;42.864;12.014;2022-07-10T13:26:36;97434.96;;;28.64;30.44
52653;BME280;39353;42.864;12.014;2022-07-10T13:32:27;97434.40;;;28.66;29.86
52653;BME280;39353;42.864;12.014;2022-07-10T13:35:14;97433.02;;;28.70;29.76
52653;BME280;39353;42.864;12.014;2022-07-10T13:38:17;97431.52;;;28.71;30.12
52653;BME280;39353;42.864;12.014;2022-07-10T13:41:04;97429.60;;;28.74;29.67
52653;BME280;39353;42.864;12.014;2022-07-10T13:43:31;97426.63;;;28.77;29.59
52653;BME280;39353;42.864;12.014;2022-07-10T13:46:00;97429.98;;;28.79;29.24
52653;BME280;39353;42.864;12.014;2022-07-10T13:48:28;97424.06;;;28.84;28.62
52653;BME280;39353;42.864;12.014;2022-07-10T13:50:56;97421.85;;;28.83;28.40
52653;BME280;39353;42.864;12.014;2022-07-10T13:57:05;97413.30;;;28.81;28.57
52653;BME280;39353;42.864;12.014;2022-07-10T14:00:08;97416.71;;;28.82;28.70
52653;BME280;39353;42.864;12.014;2022-07-10T14:02:57;97420.15;;;28.83;28.52
52653;BME280;39353;42.864;12.014;2022-07-10T14:05:43;97414.41;;;28.81;28.48
52653;BME280;39353;42.864;12.014;2022-07-10T14:08:12;97409.38;;;28.83;28.31
52653;BME280;39353;42.864;12.014;2022-07-10T14:11:15;97409.92;;;28.83;28.12
52653;BME280;39353;42.864;12.014;2022-07-10T14:14:21;97410.16;;;28.80;28.46
52653;BME280;39353;42.864;12.014;2022-07-10T14:20:30;97397.05;;;28.86;28.79
52653;BME280;39353;42.864;12.014;2022-07-10T14:29:31;97388.54;;;28.88;29.54
52653;BME280;39353;42.864;12.014;2022-07-10T14:32:35;97385.45;;;28.88;29.19
52653;BME280;39353;42.864;12.014;2022-07-10T14:35:02;97388.36;;;28.88;28.96
52653;BME280;39353;42.864;12.014;2022-07-10T14:40:35;97389.91;;;29.04;28.48
52653;BME280;39353;42.864;12.014;2022-07-10T14:43:22;97389.90;;;29.05;28.70
52653;BME280;39353;42.864;12.014;2022-07-10T14:46:07;97389.84;;;29.08;28.59
52653;BME280;39353;42.864;12.014;2022-07-10T14:55:23;97379.21;;;29.12;28.19
52653;BME280;39353;42.864;12.014;2022-07-10T14:57:51;97384.95;;;29.12;28.12
52653;BME280;39353;42.864;12.014;2022-07-10T15:04:19;97376.13;;;29.08;27.48
52653;BME280;39353;42.864;12.014;2022-07-10T15:07:05;97370.52;;;29.04;27.97
52653;BME280;39353;42.864;12.014;2022-07-10T15:09:51;97376.09;;;29.05;28.07
52653;BME280;39353;42.864;12.014;2022-07-10T15:15:24;97377.65;;;29.01;27.61
52653;BME280;39353;42.864;12.014;2022-07-10T15:18:10;97374.05;;;29.03;27.82
52653;BME280;39353;42.864;12.014;2022-07-10T15:24:20;97381.66;;;29.16;27.26
52653;BME280;39353;42.864;12.014;2022-07-10T15:27:05;97377.64;;;29.17;27.26
52653;BME280;39353;42.864;12.014;2022-07-10T15:29:52;97373.55;;;29.16;27.93
52653;BME280;39353;42.864;12.014;2022-07-10T15:32:58;97378.14;;;29.15;27.32
52653;BME280;39353;42.864;12.014;2022-07-10T15:35:45;97374.34;;;29.13;26.82
52653;BME280;39353;42.864;12.014;2022-07-10T15:38:12;97370.41;;;29.14;26.63
52653;BME280;39353;42.864;12.014;2022-07-10T15:40:57;97366.27;;;29.14;26.89
52653;BME280;39353;42.864;12.014;2022-07-10T15:43:43;97366.50;;;29.12;26.00
52653;BME280;39353;42.864;12.014;2022-07-10T15:46:32;97364.84;;;29.12;26.65
52653;BME280;39353;42.864;12.014;2022-07-10T15:48:59;97364.64;;;29.10;26.70
52653;BME280;39353;42.864;12.014;2022-07-10T15:55:09;97361.50;;;29.06;26.83
52653;BME280;39353;42.864;12.014;2022-07-10T15:57:36;97353.42;;;29.08;26.73
52653;BME280;39353;42.864;12.014;2022-07-10T16:00:22;97352.48;;;29.11;26.83
52653;BME280;39353;42.864;12.014;2022-07-10T16:03:08;97351.80;;;29.14;27.10
52653;BME280;39353;42.864;12.014;2022-07-10T16:05:53;97349.51;;;29.08;27.83
52653;BME280;39353;42.864;12.014;2022-07-10T16:08:39;97348.81;;;29.02;27.92
52653;BME280;39353;42.864;12.014;2022-07-10T16:11:06;97348.70;;;29.02;27.83
52653;BME280;39353;42.864;12.014;2022-07-10T16:13:34;97344.10;;;29.03;27.52
52653;BME280;39353;42.864;12.014;2022-07-10T16:16:22;97341.49;;;29.07;27.63
52653;BME280;39353;42.864;12.014;2022-07-10T16:19:07;97341.82;;;29.08;27.40
52653;BME280;39353;42.864;12.014;2022-07-10T16:21:36;97338.73;;;29.07;27.08
52653;BME280;39353;42.864;12.014;2022-07-10T16:24:21;97337.19;;;29.05;27.18
52653;BME280;39353;42.864;12.014;2022-07-10T16:30:30;97336.15;;;29.04;27.21
52653;BME280;39353;42.864;12.014;2022-07-10T16:33:35;97332.02;;;29.01;26.91
52653;BME280;39353;42.864;12.014;2022-07-10T16:39:24;97327.65;;;28.93;26.73
52653;BME280;39353;42.864;12.014;2022-07-10T16:41:52;97325.89;;;28.89;26.59
52653;BME280;39353;42.864;12.014;2022-07-10T16:44:19;97323.81;;;28.87;26.61
52653;BME280;39353;42.864;12.014;2022-07-10T16:46:47;97323.77;;;28.84;27.16
52653;BME280;39353;42.864;12.014;2022-07-10T16:49:14;97326.11;;;28.79;27.09
52653;BME280;39353;42.864;12.014;2022-07-10T16:51:41;97324.50;;;28.80;27.24
52653;BME280;39353;42.864;12.014;2022-07-10T17:00:36;97319.94;;;28.76;27.52
52653;BME280;39353;42.864;12.014;2022-07-10T17:03:41;97324.46;;;28.75;27.70
52653;BME280;39353;42.864;12.014;2022-07-10T17:06:28;97321.70;;;28.72;27.73
52653;BME280;39353;42.864;12.014;2022-07-10T17:09:13;97320.87;;;28.73;27.60
52653;BME280;39353;42.864;12.014;2022-07-10T17:12:36;97325.55;;;28.75;27.86
52653;BME280;39353;42.864;12.014;2022-07-10T17:15:05;97325.29;;;28.77;27.83
52653;BME280;39353;42.864;12.014;2022-07-10T17:17:50;97328.33;;;28.78;27.53
52653;BME280;39353;42.864;12.014;2022-07-10T17:20:17;97325.61;;;28.78;27.91
52653;BME280;39353;42.864;12.014;2022-07-10T17:22:44;97327.71;;;28.78;27.86
52653;BME280;39353;42.864;12.014;2022-07-10T17:25:31;97324.45;;;28.78;27.51
52653;BME280;39353;42.864;12.014;2022-07-10T17:28:55;97327.22;;;28.75;27.22
52653;BME280;39353;42.864;12.014;2022-07-10T17:35:21;97327.16;;;28.73;27.49
52653;BME280;39353;42.864;12.014;2022-07-10T17:38:26;97330.09;;;28.73;27.61
52653;BME280;39353;42.864;12.014;2022-07-10T17:41:31;97332.20;;;28.73;27.95
52653;BME280;39353;42.864;12.014;2022-07-10T17:48:16;97331.86;;;28.75;27.75
52653;BME280;39353;42.864;12.014;2022-07-10T17:50:44;97334.02;;;28.74;27.66
52653;BME280;39353;42.864;12.014;2022-07-10T17:53:30;97336.33;;;28.73;27.80
52653;BME280;39353;42.864;12.014;2022-07-10T17:56:00;97337.77;;;28.75;27.79
52653;BME280;39353;42.864;12.014;2022-07-10T17:59:05;97334.67;;;28.76;27.88
52653;BME280;39353;42.864;12.014;2022-07-10T18:08:01;97341.20;;;28.77;28.08
52653;BME280;39353;42.864;12.014;2022-07-10T18:10:47;97346.65;;;28.79;27.76
52653;BME280;39353;42.864;12.014;2022-07-10T18:16:00;97354.21;;;28.79;27.99
52653;BME280;39353;42.864;12.014;2022-07-10T18:25:11;97357.46;;;28.80;27.96
52653;BME280;39353;42.864;12.014;2022-07-10T18:28:15;97358.14;;;28.79;28.61
52653;BME280;39353;42.864;12.014;2022-07-10T18:31:06;97360.95;;;28.79;29.55
52653;BME280;39353;42.864;12.014;2022-07-10T18:34:12;97362.99;;;28.80;29.35
52653;BME280;39353;42.864;12.014;2022-07-10T18:37:13;97365.36;;;28.81;28.98
52653;BME280;39353;42.864;12.014;2022-07-10T18:39:40;97370.06;;;28.82;29.92
52653;BME280;39353;42.864;12.014;2022-07-10T18:42:25;97376.46;;;28.80;30.47
52653;BME280;39353;42.864;12.014;2022-07-10T18:45:50;97386.20;;;28.75;29.62
52653;BME280;39353;42.864;12.014;2022-07-10T18:48:36;97391.13;;;28.69;29.79
52653;BME280;39353;42.864;12.014;2022-07-10T18:55:23;97400.94;;;28.63;30.49
52653;BME280;39353;42.864;12.014;2022-07-10T19:01:13;97401.42;;;28.51;30.78
52653;BME280;39353;42.864;12.014;2022-07-10T19:04:17;97405.08;;;28.48;31.03
52653;BME280;39353;42.864;12.014;2022-07-10T19:06:45;97406.69;;;28.43;31.39
52653;BME280;39353;42.864;12.014;2022-07-10T19:09:12;97410.77;;;28.40;31.28
52653;BME280;39353;42.864;12.014;2022-07-10T19:11:59;97418.94;;;28.36;31.06
52653;BME280;39353;42.864;12.014;2022-07-10T19:14:28;97419.34;;;28.29;31.35
52653;BME280;39353;42.864;12.014;2022-07-10T19:17:14;97422.09;;;28.24;31.61